Time;durP1;ratioP1;P1;durP2;ratioP2;P2;SDS_P1;SDS_P2;PMS_P1;PMS_P2;Temp;Humidity;BMP_temperature;BMP_pressure;BME280_temperature;BME280_humidity;BME280_pressure;Samples;Min_cycle;Max_cycle;Signal;HPM_P1;HPM_P2
2023/08/12 00:00:33;;;;;;;13.10;7.30;;;22.90;99.90;;;;;;5014290;28;20536;-74
2023/08/12 00:03:00;;;;;;;13.83;7.00;;;22.90;99.90;;;;;;5014487;28;20804;-73
2023/08/12 00:05:28;;;;;;;8.53;6.70;;;22.90;99.90;;;;;;5007441;28;20444;-73
2023/08/12 00:07:55;;;;;;;10.13;6.63;;;22.90;99.90;;;;;;5012254;28;20543;-73
2023/08/12 00:10:22;;;;;;;9.80;6.90;;;22.90;99.90;;;;;;5009723;28;20480;-75
2023/08/12 00:12:49;;;;;;;14.47;8.07;;;22.80;99.90;;;;;;5009575;28;20483;-73
2023/08/12 00:15:16;;;;;;;12.13;9.67;;;22.80;99.90;;;;;;5014786;28;20547;-74
2023/08/12 00:17:43;;;;;;;8.90;7.03;;;22.80;99.90;;;;;;5011000;28;20444;-74
2023/08/12 00:20:12;;;;;;;9.50;7.70;;;22.80;99.90;;;;;;5008660;28;20464;-74
2023/08/12 00:22:41;;;;;;;9.33;8.43;;;22.70;99.90;;;;;;5005277;28;20440;-75
2023/08/12 00:25:09;;;;;;;15.13;8.80;;;22.70;99.90;;;;;;5015905;28;21864;-74
2023/08/12 00:27:37;;;;;;;11.47;8.60;;;22.60;99.90;;;;;;5009336;28;20490;-73
2023/08/12 00:30:08;;;;;;;15.23;8.43;;;22.60;99.90;;;;;;5010861;28;20528;-75
2023/08/12 00:32:35;;;;;;;12.57;9.13;;;22.50;99.90;;;;;;5008382;28;20519;-74
2023/08/12 00:35:04;;;;;;;12.13;8.20;;;22.40;99.90;;;;;;5015835;28;20495;-74
2023/08/12 00:37:30;;;;;;;10.43;8.13;;;22.40;99.90;;;;;;5003532;28;20439;-74
2023/08/12 00:39:59;;;;;;;13.00;6.70;;;22.30;99.90;;;;;;5013519;28;20922;-74
2023/08/12 00:42:26;;;;;;;9.20;6.70;;;22.30;99.90;;;;;;5015354;28;20467;-74
2023/08/12 00:44:53;;;;;;;12.10;7.83;;;22.20;99.90;;;;;;5014419;28;20852;-73
2023/08/12 00:47:21;;;;;;;11.33;8.33;;;22.20;99.90;;;;;;5008844;28;20543;-76
2023/08/12 00:49:48;;;;;;;10.30;7.70;;;22.20;99.90;;;;;;5014682;28;20867;-74
2023/08/12 00:52:18;;;;;;;13.83;7.17;;;22.10;99.90;;;;;;5011918;28;20486;-74
2023/08/12 00:54:45;;;;;;;9.70;6.90;;;22.10;99.90;;;;;;5014364;28;20506;-75
2023/08/12 00:57:14;;;;;;;13.00;7.40;;;22.10;99.90;;;;;;5014743;28;20580;-74
2023/08/12 00:59:42;;;;;;;9.20;6.93;;;22.10;99.90;;;;;;5014208;28;20448;-74
2023/08/12 01:02:09;;;;;;;15.10;8.50;;;22.10;99.90;;;;;;5000796;28;20437;-75
2023/08/12 01:04:40;;;;;;;17.10;8.23;;;22.20;99.90;;;;;;5011239;28;21028;-74
2023/08/12 01:07:07;;;;;;;15.90;8.10;;;22.10;99.90;;;;;;5014825;28;20477;-73
2023/08/12 01:09:42;;;;;;;12.87;8.50;;;22.10;99.90;;;;;;5014764;28;20541;-73
2023/08/12 01:12:16;;;;;;;16.07;9.23;;;22.10;99.90;;;;;;5014254;28;20482;-73
2023/08/12 01:14:47;;;;;;;12.60;7.07;;;22.10;99.90;;;;;;5011570;28;20471;-74
2023/08/12 01:17:16;;;;;;;9.33;7.13;;;22.10;99.90;;;;;;5014936;28;20454;-73
2023/08/12 01:19:44;;;;;;;12.63;8.17;;;22.10;99.90;;;;;;5010234;28;20792;-74
2023/08/12 01:22:14;;;;;;;15.30;7.30;;;22.00;99.90;;;;;;5006409;28;20444;-73
2023/08/12 01:24:43;;;;;;;9.63;7.47;;;22.10;99.90;;;;;;5013959;28;20474;-74
2023/08/12 01:27:12;;;;;;;13.97;7.30;;;22.10;99.90;;;;;;5013978;28;20531;-73
2023/08/12 01:29:55;;;;;;;16.20;8.90;;;22.10;99.90;;;;;;5014002;28;20506;-74
2023/08/12 01:32:37;;;;;;;23.13;8.73;;;22.10;99.90;;;;;;5002135;28;20480;-73
2023/08/12 01:35:11;;;;;;;10.13;7.60;;;22.10;99.90;;;;;;4993544;28;20537;-74
2023/08/12 01:37:40;;;;;;;16.20;7.37;;;22.10;99.90;;;;;;4991109;28;20436;-74
2023/08/12 01:40:29;;;;;;;12.43;7.00;;;22.10;99.90;;;;;;5013636;28;20518;-74
2023/08/12 01:42:56;;;;;;;13.50;8.20;;;22.20;99.90;;;;;;5011091;28;20844;-73
2023/08/12 01:46:03;;;;;;;11.90;6.70;;;22.10;99.90;;;;;;5002650;28;20535;-73
2023/08/12 01:48:30;;;;;;;12.23;8.37;;;22.00;99.90;;;;;;5014132;28;20486;-75
2023/08/12 01:50:57;;;;;;;11.37;8.20;;;21.90;99.90;;;;;;5013585;28;20501;-74
2023/08/12 01:53:24;;;;;;;22.00;9.83;;;21.90;99.90;;;;;;5013550;28;20546;-73
2023/08/12 01:55:53;;;;;;;16.47;10.27;;;21.90;99.90;;;;;;5013944;28;20432;-74
2023/08/12 01:58:21;;;;;;;9.90;7.03;;;21.90;99.90;;;;;;5013860;28;20535;-74
2023/08/12 02:00:48;;;;;;;11.43;8.50;;;21.90;99.90;;;;;;5013869;28;20483;-74
2023/08/12 02:03:17;;;;;;;18.30;9.43;;;21.90;99.90;;;;;;5013765;28;20864;-73
2023/08/12 02:05:54;;;;;;;22.93;10.50;;;21.90;99.90;;;;;;5011496;28;20543;-73
2023/08/12 02:08:21;;;;;;;15.40;9.57;;;21.80;99.90;;;;;;5013666;28;20440;-73
2023/08/12 02:10:48;;;;;;;13.77;10.10;;;21.70;99.90;;;;;;5013165;28;20880;-74
2023/08/12 02:13:18;;;;;;;14.07;10.20;;;21.60;99.90;;;;;;5012842;28;20575;-73
2023/08/12 02:15:45;;;;;;;14.13;11.40;;;21.60;99.90;;;;;;5000742;28;20470;-73
2023/08/12 02:18:24;;;;;;;22.50;10.67;;;21.60;99.90;;;;;;5013422;28;20467;-73
2023/08/12 02:20:51;;;;;;;14.30;12.20;;;21.60;99.90;;;;;;5013427;28;20531;-74
2023/08/12 02:23:25;;;;;;;17.40;11.10;;;21.50;99.90;;;;;;5013650;28;20455;-74
2023/08/12 02:25:54;;;;;;;16.77;11.07;;;21.60;99.90;;;;;;5012653;28;20482;-74
2023/08/12 02:28:36;;;;;;;19.43;13.67;;;21.60;99.90;;;;;;5007224;28;20424;-74
2023/08/12 02:31:03;;;;;;;17.80;11.70;;;21.50;99.90;;;;;;5008534;28;20457;-74
2023/08/12 02:33:34;;;;;;;17.63;11.40;;;21.50;99.90;;;;;;5000768;28;20570;-74
2023/08/12 02:36:01;;;;;;;19.83;10.07;;;21.50;99.90;;;;;;5001778;28;20615;-74
2023/08/12 02:38:31;;;;;;;14.97;11.30;;;21.50;99.90;;;;;;5011234;28;20472;-74
2023/08/12 02:40:58;;;;;;;14.27;11.13;;;21.60;99.90;;;;;;5012155;28;20505;-75
2023/08/12 02:43:36;;;;;;;16.23;10.17;;;21.60;99.90;;;;;;5012219;28;20459;-74
2023/08/12 02:46:03;;;;;;;14.37;11.13;;;21.60;99.90;;;;;;5012279;28;20542;-74
2023/08/12 02:48:30;;;;;;;14.13;12.33;;;21.60;99.90;;;;;;5012441;28;20455;-74
2023/08/12 02:50:58;;;;;;;17.43;12.30;;;21.60;99.90;;;;;;5011742;28;20870;-75
2023/08/12 02:53:25;;;;;;;26.57;12.80;;;21.70;99.90;;;;;;5011890;28;20506;-75
2023/08/12 02:55:53;;;;;;;25.70;13.87;;;21.60;99.90;;;;;;5012353;28;20487;-75
2023/08/12 02:58:20;;;;;;;16.53;11.70;;;21.60;99.90;;;;;;5012392;28;20981;-76
2023/08/12 03:00:52;;;;;;;23.63;13.10;;;21.60;99.90;;;;;;5010470;28;20633;-75
2023/08/12 03:03:19;;;;;;;27.13;13.97;;;21.60;99.90;;;;;;5014031;28;20553;-74
2023/08/12 03:05:47;;;;;;;22.17;13.90;;;21.60;99.90;;;;;;5015521;28;20436;-74
2023/08/12 03:08:14;;;;;;;12.60;10.53;;;21.60;99.90;;;;;;5016175;28;20483;-75
2023/08/12 03:10:42;;;;;;;21.07;14.10;;;21.60;99.90;;;;;;5013650;28;20945;-74
2023/08/12 03:13:09;;;;;;;17.47;12.30;;;21.60;99.90;;;;;;5015180;28;20924;-74
2023/08/12 03:15:39;;;;;;;14.13;11.70;;;21.60;99.90;;;;;;5010503;28;20857;-74
2023/08/12 03:18:07;;;;;;;18.50;15.00;;;21.60;99.90;;;;;;5010865;28;20538;-75
2023/08/12 03:20:34;;;;;;;19.00;13.23;;;21.60;99.90;;;;;;5012798;28;20475;-75
2023/08/12 03:23:01;;;;;;;15.93;13.20;;;21.60;99.90;;;;;;5007118;28;20472;-75
2023/08/12 03:25:28;;;;;;;20.40;15.33;;;21.60;99.90;;;;;;5008251;28;20524;-75
2023/08/12 03:27:55;;;;;;;19.47;15.10;;;21.50;99.90;;;;;;5009741;28;20453;-75
2023/08/12 03:30:24;;;;;;;24.63;14.13;;;21.50;99.90;;;;;;5009531;28;20448;-73
2023/08/12 03:32:53;;;;;;;17.97;14.70;;;21.50;99.90;;;;;;5012568;28;20488;-74
2023/08/12 03:35:21;;;;;;;23.37;15.73;;;21.60;99.90;;;;;;5016240;28;20442;-74
2023/08/12 03:37:48;;;;;;;22.83;15.13;;;21.60;99.90;;;;;;5011781;28;20467;-75
2023/08/12 03:40:15;;;;;;;24.10;17.13;;;21.50;99.90;;;;;;5012250;28;20476;-75
2023/08/12 03:42:42;;;;;;;20.00;14.10;;;21.50;99.90;;;;;;5008417;28;20448;-74
2023/08/12 03:45:10;;;;;;;26.83;18.07;;;21.50;99.90;;;;;;5014137;28;20475;-75
2023/08/12 03:47:37;;;;;;;29.27;17.97;;;21.50;99.90;;;;;;5017539;28;20455;-75
2023/08/12 03:50:12;;;;;;;25.23;16.30;;;21.50;99.90;;;;;;5010328;28;20448;-77
2023/08/12 03:52:40;;;;;;;22.33;15.00;;;21.50;99.90;;;;;;5011934;28;20476;-77
2023/08/12 03:55:08;;;;;;;21.00;15.93;;;21.50;99.90;;;;;;5006591;28;20535;-78
2023/08/12 03:57:35;;;;;;;17.70;13.83;;;21.50;99.90;;;;;;5007729;28;20478;-76
2023/08/12 04:00:02;;;;;;;21.27;15.73;;;21.50;99.90;;;;;;5002997;28;20447;-76
2023/08/12 04:03:00;;;;;;;22.33;14.50;;;21.60;99.90;;;;;;5009904;28;20443;-78
2023/08/12 04:05:28;;;;;;;20.00;15.17;;;21.60;99.90;;;;;;5016522;28;20467;-78
2023/08/12 04:08:20;;;;;;;23.73;16.03;;;21.60;99.90;;;;;;5016724;28;20919;-77
2023/08/12 04:10:48;;;;;;;28.80;18.97;;;21.60;99.90;;;;;;5007042;28;20452;-78
2023/08/12 04:13:15;;;;;;;21.87;17.23;;;21.60;99.90;;;;;;5008872;28;20492;-77
2023/08/12 04:15:43;;;;;;;25.70;19.07;;;21.50;99.90;;;;;;5015463;28;20474;-75
2023/08/12 04:18:10;;;;;;;18.20;16.30;;;21.50;99.90;;;;;;5015503;28;20520;-77
2023/08/12 04:20:39;;;;;;;29.23;19.20;;;21.50;99.90;;;;;;5008174;28;20534;-75
2023/08/12 04:23:12;;;;;;;33.27;21.53;;;21.60;99.90;;;;;;5011551;28;20468;-77
2023/08/12 04:25:41;;;;;;;22.90;18.90;;;21.50;99.90;;;;;;5015774;28;20453;-75
2023/08/12 04:28:08;;;;;;;20.87;18.57;;;21.40;99.90;;;;;;5015282;28;20486;-76
2023/08/12 04:30:35;;;;;;;24.70;18.70;;;21.50;99.90;;;;;;5014710;28;20520;-76
2023/08/12 04:33:04;;;;;;;26.97;21.70;;;21.50;99.90;;;;;;5011433;28;20965;-75
2023/08/12 04:35:33;;;;;;;27.97;21.13;;;21.40;99.90;;;;;;5005666;28;20538;-75
2023/08/12 04:38:00;;;;;;;32.43;19.90;;;21.40;99.90;;;;;;5014751;28;20808;-75
2023/08/12 04:40:29;;;;;;;25.17;22.50;;;21.40;99.90;;;;;;5011970;28;20435;-74
2023/08/12 04:42:57;;;;;;;30.43;21.13;;;21.30;99.90;;;;;;5014240;28;20456;-75
2023/08/12 04:45:24;;;;;;;30.70;22.23;;;21.20;99.90;;;;;;5014442;28;20923;-73
2023/08/12 04:47:51;;;;;;;28.40;22.40;;;21.20;99.90;;;;;;5010989;28;20441;-75
2023/08/12 04:50:18;;;;;;;29.03;21.63;;;21.10;99.90;;;;;;5007158;28;20449;-74
2023/08/12 04:52:46;;;;;;;26.03;20.33;;;21.10;99.90;;;;;;5014071;28;20941;-74
2023/08/12 04:55:13;;;;;;;24.50;20.90;;;21.10;99.90;;;;;;5006594;28;20486;-74
2023/08/12 04:57:46;;;;;;;28.77;24.20;;;21.10;99.90;;;;;;5008710;28;20463;-74
2023/08/12 05:00:14;;;;;;;23.17;17.67;;;21.10;99.90;;;;;;5008410;28;20532;-75
2023/08/12 05:02:41;;;;;;;20.10;18.10;;;21.10;99.90;;;;;;5002423;28;20487;-74
2023/08/12 05:05:09;;;;;;;27.73;22.80;;;21.20;99.90;;;;;;5010735;28;20872;-74
2023/08/12 05:07:35;;;;;;;25.53;22.83;;;21.10;99.90;;;;;;5013014;28;20443;-74
2023/08/12 05:10:03;;;;;;;29.33;24.73;;;21.10;99.90;;;;;;5012936;28;20518;-73
2023/08/12 05:12:30;;;;;;;26.93;22.90;;;21.10;99.90;;;;;;5012979;28;20489;-73
2023/08/12 05:14:56;;;;;;;28.37;25.13;;;21.00;99.90;;;;;;5012210;28;20578;-73
2023/08/12 05:17:25;;;;;;;26.20;22.63;;;21.00;99.90;;;;;;5012515;28;20444;-72
2023/08/12 05:19:52;;;;;;;35.47;28.13;;;21.00;99.90;;;;;;5009947;28;20517;-71
2023/08/12 05:22:19;;;;;;;35.93;29.20;;;20.90;99.90;;;;;;5012503;28;20796;-73
2023/08/12 05:24:46;;;;;;;35.57;28.60;;;20.90;99.90;;;;;;5013995;28;20553;-73
2023/08/12 05:27:13;;;;;;;32.73;27.23;;;20.90;99.90;;;;;;5011218;28;20512;-73
2023/08/12 05:29:41;;;;;;;23.53;21.13;;;20.90;99.90;;;;;;5008719;28;20532;-73
2023/08/12 05:32:08;;;;;;;31.00;26.20;;;20.90;99.90;;;;;;5013186;28;20460;-72
2023/08/12 05:34:36;;;;;;;37.20;29.40;;;20.90;99.90;;;;;;5012635;28;20531;-72
2023/08/12 05:37:03;;;;;;;23.30;20.90;;;21.00;99.90;;;;;;5005951;28;20544;-72
2023/08/12 05:39:30;;;;;;;24.43;21.70;;;21.00;99.90;;;;;;5012424;28;20529;-72
2023/08/12 05:41:57;;;;;;;28.87;24.87;;;21.10;99.90;;;;;;5005769;28;20460;-73
2023/08/12 05:44:24;;;;;;;27.73;23.10;;;21.00;99.90;;;;;;5007608;28;20501;-73
2023/08/12 05:46:51;;;;;;;28.50;24.20;;;20.90;99.90;;;;;;5008375;28;20527;-72
2023/08/12 05:49:18;;;;;;;38.47;27.20;;;21.00;99.90;;;;;;5007218;28;20510;-72
2023/08/12 05:51:46;;;;;;;33.53;29.20;;;20.90;99.90;;;;;;5004397;28;20528;-72
2023/08/12 05:54:13;;;;;;;22.97;20.73;;;20.80;99.90;;;;;;5009839;28;20502;-72
2023/08/12 05:56:40;;;;;;;19.73;17.73;;;20.90;99.90;;;;;;5009555;28;20447;-72
2023/08/12 05:59:07;;;;;;;25.67;21.13;;;21.00;99.90;;;;;;5003050;28;20997;-73
2023/08/12 06:01:35;;;;;;;26.07;19.27;;;21.00;99.90;;;;;;5008045;28;20455;-72
2023/08/12 06:04:02;;;;;;;18.70;16.47;;;21.00;99.90;;;;;;5005326;28;20488;-74
2023/08/12 06:06:29;;;;;;;17.77;15.97;;;21.10;99.90;;;;;;5012604;28;20976;-73
2023/08/12 06:08:57;;;;;;;29.10;23.40;;;21.20;99.90;;;;;;5012000;28;20447;-73
2023/08/12 06:11:24;;;;;;;28.97;23.53;;;21.10;99.90;;;;;;5004478;28;20562;-73
2023/08/12 06:13:51;;;;;;;20.13;16.50;;;21.10;99.90;;;;;;5009848;28;20581;-75
2023/08/12 06:16:18;;;;;;;25.90;22.03;;;21.10;99.90;;;;;;5004923;28;20449;-74
2023/08/12 06:18:45;;;;;;;33.07;20.40;;;21.00;99.90;;;;;;5008162;28;20522;-74
2023/08/12 06:21:12;;;;;;;28.73;21.40;;;21.00;99.90;;;;;;5007589;28;20458;-74
2023/08/12 06:23:39;;;;;;;28.83;23.03;;;21.10;99.90;;;;;;5008239;28;20463;-73
2023/08/12 06:26:07;;;;;;;19.60;16.80;;;21.00;99.90;;;;;;5012959;28;20470;-74
2023/08/12 06:28:34;;;;;;;25.73;22.67;;;21.10;99.90;;;;;;5012496;28;20996;-74
2023/08/12 06:31:01;;;;;;;22.60;20.20;;;21.20;99.90;;;;;;5011421;28;20872;-72
2023/08/12 06:33:28;;;;;;;19.17;16.90;;;21.20;99.90;;;;;;5012014;28;20475;-72
2023/08/12 06:35:56;;;;;;;23.10;20.70;;;21.40;99.90;;;;;;5000694;28;20837;-73
2023/08/12 06:38:23;;;;;;;23.70;19.27;;;21.40;99.90;;;;;;5008924;28;20451;-73
2023/08/12 06:40:50;;;;;;;25.53;21.90;;;21.40;99.90;;;;;;5016390;28;20440;-76
2023/08/12 06:43:18;;;;;;;21.13;18.23;;;21.40;99.90;;;;;;5014223;28;20544;-72
2023/08/12 06:45:45;;;;;;;25.20;19.77;;;21.40;99.90;;;;;;5015528;28;20973;-73
2023/08/12 06:48:12;;;;;;;21.67;18.00;;;21.50;99.90;;;;;;5015951;28;20463;-74
2023/08/12 06:50:39;;;;;;;21.53;18.23;;;21.50;99.90;;;;;;5015249;28;20523;-72
2023/08/12 06:53:07;;;;;;;22.80;19.57;;;21.60;99.90;;;;;;5015662;28;20460;-73
2023/08/12 06:55:34;;;;;;;17.00;15.17;;;21.70;99.90;;;;;;5014672;28;20475;-72
2023/08/12 06:58:01;;;;;;;22.57;17.60;;;21.70;99.90;;;;;;5011385;28;20502;-73
2023/08/12 07:00:53;;;;;;;28.30;21.17;;;21.70;99.90;;;;;;5017145;28;20471;-73
2023/08/12 07:03:20;;;;;;;19.40;17.37;;;21.70;99.90;;;;;;5017795;28;20548;-72
2023/08/12 07:05:49;;;;;;;18.30;15.10;;;21.80;99.90;;;;;;5017218;28;20531;-72
2023/08/12 07:08:16;;;;;;;20.83;17.73;;;21.80;99.90;;;;;;5012685;28;20444;-71
2023/08/12 07:10:44;;;;;;;25.17;20.83;;;21.90;99.90;;;;;;5006849;28;20441;-71
2023/08/12 07:13:11;;;;;;;33.60;25.63;;;21.80;99.90;;;;;;5014256;28;20510;-73
2023/08/12 07:15:38;;;;;;;25.60;21.23;;;21.80;99.90;;;;;;5013531;28;20522;-72
2023/08/12 07:18:06;;;;;;;20.43;17.70;;;21.80;99.90;;;;;;5010476;28;20530;-73
2023/08/12 07:20:33;;;;;;;24.30;19.10;;;21.80;99.90;;;;;;5015084;28;20498;-71
2023/08/12 07:23:00;;;;;;;28.17;20.70;;;21.90;99.90;;;;;;5015195;28;21004;-74
2023/08/12 07:25:27;;;;;;;25.23;22.20;;;21.80;99.90;;;;;;5018320;28;20923;-74
2023/08/12 07:27:54;;;;;;;26.20;21.13;;;21.80;99.90;;;;;;5017928;28;20931;-72
2023/08/12 07:30:21;;;;;;;22.77;20.33;;;21.90;99.90;;;;;;5020491;28;20428;-71
2023/08/12 07:32:48;;;;;;;29.03;21.47;;;21.90;99.90;;;;;;5019129;28;20574;-73
2023/08/12 07:35:17;;;;;;;27.00;22.17;;;21.80;99.90;;;;;;5015034;28;20553;-71
2023/08/12 07:37:44;;;;;;;28.47;22.17;;;21.80;99.90;;;;;;5013929;28;20970;-70
2023/08/12 07:40:13;;;;;;;22.27;20.17;;;21.90;99.90;;;;;;5015381;28;20474;-72
2023/08/12 07:42:40;;;;;;;28.60;22.63;;;21.80;99.90;;;;;;5010306;28;20444;-73
2023/08/12 07:45:13;;;;;;;30.73;22.50;;;21.90;99.90;;;;;;5014509;28;20539;-72
2023/08/12 07:47:48;;;;;;;22.83;20.13;;;21.90;99.90;;;;;;5013160;28;20989;-72
2023/08/12 07:50:15;;;;;;;27.60;21.17;;;22.00;99.90;;;;;;5007469;28;20849;-72
2023/08/12 07:52:44;;;;;;;22.93;20.37;;;22.00;99.90;;;;;;5009080;28;20833;-72
2023/08/12 07:55:12;;;;;;;25.00;22.00;;;22.10;99.90;;;;;;5009163;28;20480;-73
2023/08/12 07:57:39;;;;;;;26.23;23.20;;;22.20;99.90;;;;;;5006750;28;21001;-72
2023/08/12 08:00:09;;;;;;;24.13;21.40;;;22.40;99.90;;;;;;5010187;28;20643;-74
2023/08/12 08:02:36;;;;;;;24.37;21.77;;;22.60;99.90;;;;;;5011577;28;20448;-72
2023/08/12 08:05:04;;;;;;;29.53;25.30;;;22.60;99.90;;;;;;5021758;28;20952;-73
2023/08/12 08:07:31;;;;;;;19.00;17.17;;;22.70;99.90;;;;;;5012015;28;20871;-72
2023/08/12 08:10:00;;;;;;;28.33;20.47;;;22.90;99.90;;;;;;5005726;28;20895;-72
2023/08/12 08:12:27;;;;;;;22.47;20.10;;;23.00;99.90;;;;;;5010635;28;20478;-72
2023/08/12 08:14:53;;;;;;;23.10;16.27;;;23.10;99.90;;;;;;5012411;28;20491;-73
2023/08/12 08:17:20;;;;;;;27.33;21.07;;;23.30;99.90;;;;;;5007984;28;20511;-74
2023/08/12 08:19:47;;;;;;;20.30;17.70;;;23.40;99.90;;;;;;5006835;28;20449;-71
2023/08/12 08:22:14;;;;;;;25.60;20.20;;;23.40;99.90;;;;;;5010443;28;20452;-70
2023/08/12 08:24:41;;;;;;;24.90;20.93;;;23.30;99.90;;;;;;5014020;28;20459;-72
2023/08/12 08:27:10;;;;;;;25.50;21.80;;;23.20;99.90;;;;;;5012375;28;20456;-74
2023/08/12 08:29:36;;;;;;;21.93;18.50;;;23.00;99.90;;;;;;5008798;28;20523;-72
2023/08/12 08:32:05;;;;;;;20.53;17.60;;;23.20;99.90;;;;;;5006374;28;20547;-75
2023/08/12 08:34:32;;;;;;;21.40;19.20;;;23.30;99.90;;;;;;5013585;28;20557;-74
2023/08/12 08:36:59;;;;;;;20.13;18.03;;;23.30;99.90;;;;;;5014068;28;20899;-76
2023/08/12 08:39:26;;;;;;;25.43;21.50;;;23.20;99.90;;;;;;5013383;28;20475;-72
2023/08/12 08:41:55;;;;;;;25.37;18.00;;;23.10;99.90;;;;;;5013425;28;20483;-75
2023/08/12 08:44:24;;;;;;;17.47;15.60;;;23.10;99.90;;;;;;5013029;28;20471;-75
2023/08/12 08:46:53;;;;;;;24.57;21.50;;;23.20;99.90;;;;;;5010385;28;20491;-72
2023/08/12 08:49:21;;;;;;;25.83;21.07;;;23.20;99.90;;;;;;5011101;28;20448;-74
2023/08/12 08:51:48;;;;;;;20.80;18.60;;;23.20;99.90;;;;;;5011932;28;20498;-73
2023/08/12 08:54:17;;;;;;;27.13;20.53;;;23.10;99.90;;;;;;5009787;28;20468;-73
2023/08/12 08:56:44;;;;;;;28.57;19.57;;;23.00;99.90;;;;;;5005957;28;20553;-76
2023/08/12 08:59:11;;;;;;;22.50;20.30;;;23.00;99.90;;;;;;5011840;28;20488;-75
2023/08/12 09:01:41;;;;;;;21.70;19.27;;;23.00;99.90;;;;;;5011575;28;20440;-74
2023/08/12 09:04:09;;;;;;;29.03;21.20;;;23.00;99.90;;;;;;5013048;28;20467;-74
2023/08/12 09:06:40;;;;;;;19.23;16.87;;;23.10;99.90;;;;;;5014062;28;20514;-74
2023/08/12 09:09:13;;;;;;;23.53;17.97;;;23.00;99.90;;;;;;5010604;28;20444;-75
2023/08/12 09:11:40;;;;;;;18.80;16.33;;;23.10;99.90;;;;;;5007608;28;20817;-73
2023/08/12 09:14:08;;;;;;;28.43;22.17;;;23.20;99.90;;;;;;5010892;28;20555;-76
2023/08/12 09:16:35;;;;;;;21.47;17.50;;;23.20;99.90;;;;;;5008489;28;20476;-73
2023/08/12 09:19:04;;;;;;;27.53;18.90;;;23.00;99.90;;;;;;5013449;28;20448;-74
2023/08/12 09:32:11;;;;;;;24.33;21.83;;;23.00;99.90;;;;;;5140481;27;20583;-74
2023/08/12 09:34:38;;;;;;;28.90;25.80;;;22.40;99.90;;;;;;5145698;27;20505;-74
2023/08/12 09:37:05;;;;;;;29.93;25.30;;;22.40;99.90;;;;;;5148649;27;21343;-74
2023/08/12 09:39:33;;;;;;;31.37;24.40;;;22.30;99.90;;;;;;5141676;27;22340;-74
2023/08/12 09:42:01;;;;;;;30.30;26.83;;;22.30;99.90;;;;;;5139739;27;20438;-74
2023/08/12 09:44:30;;;;;;;31.07;27.77;;;22.20;99.90;;;;;;5140765;27;20470;-75
2023/08/12 09:47:00;;;;;;;34.93;23.90;;;22.20;99.90;;;;;;5145700;27;20512;-73
2023/08/12 09:49:33;;;;;;;27.13;24.33;;;22.20;99.90;;;;;;5136376;27;20957;-73
2023/08/12 09:52:00;;;;;;;31.50;28.30;;;22.20;99.90;;;;;;5146857;27;20446;-72
2023/08/12 09:54:28;;;;;;;32.07;26.40;;;22.20;99.90;;;;;;5148565;27;20462;-73
2023/08/12 09:56:59;;;;;;;31.77;28.43;;;22.10;99.90;;;;;;5150353;27;20441;-72
2023/08/12 09:59:31;;;;;;;28.33;25.40;;;22.10;99.90;;;;;;5143962;27;20485;-73
2023/08/12 10:01:59;;;;;;;36.63;32.80;;;22.00;99.90;;;;;;5148093;27;20450;-73
2023/08/12 10:04:30;;;;;;;42.20;35.43;;;21.90;99.90;;;;;;5140126;27;20507;-73
2023/08/12 10:06:58;;;;;;;32.10;28.83;;;21.90;99.90;;;;;;5141094;27;20462;-73
2023/08/12 10:09:26;;;;;;;30.60;24.90;;;21.90;99.90;;;;;;5143254;27;20494;-71
2023/08/12 10:11:54;;;;;;;27.20;24.60;;;21.90;99.90;;;;;;5144050;27;20875;-72
2023/08/12 10:14:22;;;;;;;27.10;24.57;;;21.90;99.90;;;;;;5146544;27;20489;-72
2023/08/12 10:16:49;;;;;;;29.20;26.20;;;21.90;99.90;;;;;;5147971;27;20521;-72
2023/08/12 10:19:18;;;;;;;27.90;25.13;;;22.00;99.90;;;;;;5135964;27;20886;-73
2023/08/12 10:21:48;;;;;;;27.70;24.83;;;22.00;99.90;;;;;;5149591;27;20817;-75
2023/08/12 10:24:17;;;;;;;33.40;30.07;;;22.00;99.90;;;;;;5141430;27;20465;-72
2023/08/12 10:26:45;;;;;;;27.13;23.40;;;22.10;99.90;;;;;;5143583;27;20439;-73
2023/08/12 10:29:12;;;;;;;27.63;23.37;;;22.00;99.90;;;;;;5136092;27;20523;-72
2023/08/12 10:31:40;;;;;;;27.37;24.63;;;22.00;99.90;;;;;;5131042;27;20458;-74
2023/08/12 10:34:07;;;;;;;38.80;31.57;;;21.90;99.90;;;;;;5131169;27;20476;-72
2023/08/12 10:36:34;;;;;;;40.27;34.77;;;21.90;99.90;;;;;;5126440;27;20447;-74
2023/08/12 10:39:01;;;;;;;35.27;31.50;;;21.80;99.90;;;;;;5128168;27;20446;-72
2023/08/12 10:41:30;;;;;;;29.47;26.43;;;21.80;99.90;;;;;;5127441;27;20543;-72
2023/08/12 10:44:01;;;;;;;29.40;26.20;;;21.80;99.90;;;;;;5136542;27;20466;-72
2023/08/12 10:46:34;;;;;;;31.00;27.80;;;21.70;99.90;;;;;;5124728;27;20462;-71
2023/08/12 10:49:04;;;;;;;27.03;24.33;;;21.70;99.90;;;;;;5135215;27;20442;-71
2023/08/12 10:51:48;;;;;;;31.20;28.03;;;21.60;99.90;;;;;;5128136;27;20919;-72
2023/08/12 10:54:18;;;;;;;28.50;25.60;;;21.70;99.90;;;;;;5122854;27;20464;-72
2023/08/12 10:57:12;;;;;;;30.63;25.20;;;21.70;99.90;;;;;;5129600;27;20964;-71
2023/08/12 10:59:52;;;;;;;30.37;27.03;;;21.60;99.90;;;;;;5125745;27;20526;-71
2023/08/12 11:02:20;;;;;;;32.23;29.07;;;21.60;99.90;;;;;;5120114;27;20991;-72
2023/08/12 11:04:50;;;;;;;27.80;25.00;;;21.60;99.90;;;;;;5132192;27;20557;-74
2023/08/12 11:07:18;;;;;;;28.67;25.83;;;21.70;99.90;;;;;;5123092;27;20467;-74
2023/08/12 11:09:47;;;;;;;30.57;27.70;;;21.80;99.90;;;;;;5131801;27;21175;-74
2023/08/12 11:12:28;;;;;;;26.07;23.33;;;22.00;99.90;;;;;;5124519;27;20445;-73
2023/08/12 11:14:55;;;;;;;25.13;22.60;;;22.30;99.90;;;;;;5121049;27;21043;-73
2023/08/12 11:17:30;;;;;;;34.00;29.10;;;22.40;99.90;;;;;;5134224;27;20438;-75
2023/08/12 11:19:58;;;;;;;29.13;26.33;;;22.20;99.90;;;;;;5126130;27;20439;-74
2023/08/12 11:22:26;;;;;;;29.53;26.50;;;22.20;99.90;;;;;;5135670;27;20439;-74
2023/08/12 11:24:53;;;;;;;32.90;29.80;;;22.20;99.90;;;;;;5120177;27;20527;-73
2023/08/12 11:27:23;;;;;;;30.53;27.43;;;22.00;99.90;;;;;;5137352;27;20439;-73
2023/08/12 11:29:51;;;;;;;30.23;27.33;;;22.00;99.90;;;;;;5128169;27;20447;-73
2023/08/12 11:32:18;;;;;;;28.03;25.57;;;22.00;99.90;;;;;;5147138;27;20830;-73
2023/08/12 11:34:45;;;;;;;31.23;28.23;;;22.20;99.90;;;;;;5127203;27;20504;-73
2023/08/12 11:37:12;;;;;;;32.40;29.27;;;22.10;99.90;;;;;;5125473;27;20510;-74
2023/08/12 11:39:40;;;;;;;33.83;30.33;;;22.20;99.90;;;;;;5135382;27;20442;-74
2023/08/12 11:42:07;;;;;;;27.37;24.43;;;22.20;99.90;;;;;;5139443;27;20574;-73
2023/08/12 11:44:35;;;;;;;23.93;21.60;;;22.30;99.90;;;;;;5135822;27;20475;-73
2023/08/12 11:47:02;;;;;;;23.47;21.00;;;22.30;99.90;;;;;;5129040;27;20438;-73
2023/08/12 11:49:29;;;;;;;18.17;16.50;;;22.40;99.90;;;;;;5144309;27;20469;-75
2023/08/12 11:51:56;;;;;;;15.57;14.17;;;22.70;99.90;;;;;;5128324;27;20539;-73
2023/08/12 11:54:23;;;;;;;20.00;17.33;;;23.20;99.90;;;;;;5133473;27;20458;-74
2023/08/12 11:56:50;;;;;;;18.53;15.73;;;23.30;99.90;;;;;;5131097;27;20471;-74
2023/08/12 11:59:17;;;;;;;16.23;14.53;;;23.50;99.90;;;;;;5133471;27;20461;-74
2023/08/12 12:01:50;;;;;;;17.60;15.90;;;23.50;99.90;;;;;;5145968;27;20530;-73
2023/08/12 12:04:20;;;;;;;18.80;16.40;;;23.60;99.90;;;;;;5136889;27;20489;-74
2023/08/12 12:06:47;;;;;;;20.67;18.70;;;23.70;99.90;;;;;;5156701;27;20495;-73
2023/08/12 12:09:18;;;;;;;16.10;14.63;;;23.60;99.90;;;;;;5154789;27;20454;-74
2023/08/12 12:11:53;;;;;;;15.97;14.30;;;23.50;99.90;;;;;;5142597;27;20469;-74
2023/08/12 12:14:22;;;;;;;18.37;16.47;;;23.30;99.90;;;;;;5136069;27;20469;-74
2023/08/12 12:16:51;;;;;;;20.00;18.17;;;23.20;99.90;;;;;;5126175;27;20448;-79
2023/08/12 12:19:20;;;;;;;21.37;19.37;;;23.00;99.90;;;;;;5128549;27;20476;-77
2023/08/12 12:21:48;;;;;;;18.27;16.37;;;23.10;99.90;;;;;;5123493;27;20521;-79
2023/08/12 12:24:15;;;;;;;16.07;14.47;;;23.30;99.90;;;;;;5125589;27;20534;-76
2023/08/12 12:26:43;;;;;;;18.40;16.80;;;23.50;99.90;;;;;;5127477;27;21054;-75
2023/08/12 12:29:11;;;;;;;14.23;12.80;;;23.60;99.90;;;;;;5121535;27;20477;-76
2023/08/12 12:31:39;;;;;;;18.13;16.53;;;23.60;99.90;;;;;;5120387;27;20549;-75
2023/08/12 12:34:09;;;;;;;16.83;15.43;;;23.50;99.90;;;;;;5128570;27;20466;-75
2023/08/12 12:37:05;;;;;;;18.07;16.23;;;23.50;99.90;;;;;;5122077;27;20487;-75
2023/08/12 12:39:32;;;;;;;17.00;15.53;;;23.50;99.90;;;;;;5123134;27;20439;-76
2023/08/12 12:42:00;;;;;;;14.03;12.73;;;23.60;99.90;;;;;;5124043;27;20466;-76
2023/08/12 12:44:28;;;;;;;17.10;15.53;;;23.80;99.90;;;;;;5127885;27;20863;-74
2023/08/12 12:46:54;;;;;;;14.50;13.30;;;24.00;99.90;;;;;;5124865;27;20972;-75